Time;durP1;ratioP1;P1;durP2;ratioP2;P2;SDS_P1;SDS_P2;PMS_P1;PMS_P2;Temp;Humidity;BMP_temperature;BMP_pressure;BME280_temperature;BME280_humidity;BME280_pressure;Samples;Min_cycle;Max_cycle;Signal;HPM_P1;HPM_P2
2023/04/23 00:00:36;;;;;;;;;2.00;1.00;;;;;15.62;100.00;100540.16;5018180;28;46541;-74
2023/04/23 00:03:09;;;;;;;;;3.00;1.00;;;;;15.61;100.00;100541.06;5017625;28;45484;-73
2023/04/23 00:05:35;;;;;;;;;1.33;1.00;;;;;15.62;100.00;100548.16;5016514;28;45210;-73
2023/04/23 00:08:01;;;;;;;;;2.33;1.00;;;;;15.60;100.00;100539.28;5000182;28;45247;-74
2023/04/23 00:10:27;;;;;;;;;1.67;1.00;;;;;15.59;100.00;100537.53;4999752;28;45537;-73
2023/04/23 00:12:53;;;;;;;;;0.00;0.00;;;;;15.55;100.00;100535.81;5016429;28;45274;-72
2023/04/23 00:15:20;;;;;;;;;0.00;0.00;;;;;15.56;100.00;100540.25;4999570;28;45485;-72
2023/04/23 00:17:46;;;;;;;;;1.00;1.00;;;;;15.53;100.00;100537.63;5025946;28;45408;-73
2023/04/23 00:20:12;;;;;;;;;0.67;0.67;;;;;15.50;100.00;100540.34;4999132;28;46618;-72
2023/04/23 00:22:38;;;;;;;;;2.00;1.00;;;;;15.51;100.00;100551.88;5017633;28;45703;-74
2023/04/23 00:25:03;;;;;;;;;1.00;1.00;;;;;15.49;100.00;100541.22;5016520;28;45465;-73
2023/04/23 00:27:29;;;;;;;;;3.00;1.00;;;;;15.48;100.00;100536.81;5017374;28;45406;-73
2023/04/23 00:29:54;;;;;;;;;2.00;1.00;;;;;15.46;100.00;100535.97;5016701;28;45980;-73
2023/04/23 00:32:21;;;;;;;;;2.67;1.67;;;;;15.43;100.00;100544.84;5016325;28;58785;-73
2023/04/23 00:34:48;;;;;;;;;5.00;1.67;;;;;15.42;100.00;100542.22;4999513;28;45228;-73
2023/04/23 00:37:13;;;;;;;;;2.00;1.00;;;;;15.39;100.00;100537.84;5017393;28;45483;-73
2023/04/23 00:39:39;;;;;;;;;0.67;0.67;;;;;15.39;100.00;100540.50;4999027;28;46081;-73
2023/04/23 00:42:11;;;;;;;;;1.00;1.00;;;;;15.37;100.00;100538.75;5015920;28;45410;-73
2023/04/23 00:44:40;;;;;;;;;0.33;0.33;;;;;15.36;100.00;100542.31;5016899;28;45283;-73
2023/04/23 00:47:06;;;;;;;;;0.00;0.00;;;;;15.32;100.00;100538.78;5026520;28;45467;-73
2023/04/23 00:49:33;;;;;;;;;1.00;1.00;;;;;15.29;100.00;100537.97;4998490;28;45978;-73
2023/04/23 00:51:59;;;;;;;;;1.00;1.00;;;;;15.25;100.00;100536.25;5026364;28;45460;-73
2023/04/23 00:54:25;;;;;;;;;1.00;1.00;;;;;15.24;100.00;100526.50;5014920;28;45483;-73
2023/04/23 00:56:51;;;;;;;;;0.67;0.67;;;;;15.26;100.00;100524.69;5016366;28;45662;-73
2023/04/23 00:59:16;;;;;;;;;1.00;1.00;;;;;15.24;100.00;100518.53;5012970;28;46457;-73
2023/04/23 01:01:44;;;;;;;;;4.00;1.00;;;;;15.20;100.00;100517.69;5016667;28;45481;-73
2023/04/23 01:04:15;;;;;;;;;2.67;2.00;;;;;15.20;100.00;100515.91;5015482;28;45408;-73
2023/04/23 01:06:41;;;;;;;;;2.33;1.00;;;;;15.17;100.00;100513.25;4999130;28;45408;-73
2023/04/23 01:09:08;;;;;;;;;2.67;0.67;;;;;15.17;100.00;100505.28;4998269;28;46582;-73
2023/04/23 01:11:36;;;;;;;;;1.00;1.00;;;;;15.17;100.00;100504.41;5016615;28;45592;-73
2023/04/23 01:14:02;;;;;;;;;1.00;1.00;;;;;15.17;100.00;100510.59;4998338;28;45486;-73
2023/04/23 01:16:27;;;;;;;;;2.33;1.00;;;;;15.15;100.00;100512.41;5011153;28;45431;-73
2023/04/23 01:18:53;;;;;;;;;2.33;1.00;;;;;15.11;100.00;100497.41;5011031;28;46901;-73
2023/04/23 01:21:18;;;;;;;;;1.00;1.00;;;;;15.10;100.00;100494.75;5015450;28;45478;-73
2023/04/23 01:23:44;;;;;;;;;1.00;1.00;;;;;15.04;100.00;100495.72;4997475;28;46852;-72
2023/04/23 01:26:09;;;;;;;;;3.67;1.00;;;;;15.03;100.00;100493.09;5016200;28;49486;-73
2023/04/23 01:28:35;;;;;;;;;1.00;1.00;;;;;15.02;100.00;100494.88;4998070;28;45921;-72
2023/04/23 01:31:01;;;;;;;;;2.00;0.67;;;;;15.01;100.00;100495.75;5019940;28;45382;-73
2023/04/23 01:33:26;;;;;;;;;4.00;1.00;;;;;14.98;100.00;100490.50;5011351;28;59242;-73
2023/04/23 01:35:52;;;;;;;;;1.33;1.00;;;;;15.00;100.00;100495.78;4997986;28;59177;-73
2023/04/23 01:38:18;;;;;;;;;5.00;1.00;;;;;14.99;100.00;100502.88;5026730;28;61922;-72
2023/04/23 01:40:43;;;;;;;;;1.00;1.00;;;;;14.97;100.00;100498.47;4997547;28;66721;-73
2023/04/23 01:43:09;;;;;;;;;4.00;1.00;;;;;14.92;100.00;100493.22;5014632;28;56205;-72
2023/04/23 01:45:35;;;;;;;;;1.33;1.33;;;;;14.93;100.00;100489.66;5015942;28;45538;-73
2023/04/23 01:48:00;;;;;;;;;1.00;1.00;;;;;14.89;100.00;100485.28;5018624;28;65825;-73
2023/04/23 01:50:26;;;;;;;;;2.00;2.00;;;;;14.89;100.00;100494.13;5015349;28;45372;-72
2023/04/23 01:52:52;;;;;;;;;3.00;1.00;;;;;14.90;100.00;100489.69;4981155;28;45520;-72
2023/04/23 01:55:18;;;;;;;;;2.00;1.00;;;;;14.88;100.00;100487.06;5015372;28;62070;-72
2023/04/23 01:57:44;;;;;;;;;1.00;1.00;;;;;14.85;100.00;100483.53;5016767;28;46838;-73
2023/04/23 02:00:11;;;;;;;;;3.00;1.67;;;;;14.84;100.00;100485.31;5022589;28;45366;-73
2023/04/23 02:02:38;;;;;;;;;3.00;2.00;;;;;14.82;100.00;100475.63;5016023;28;45416;-72
2023/04/23 02:05:04;;;;;;;;;5.00;3.00;;;;;14.81;100.00;100473.88;4998328;28;45214;-72
2023/04/23 02:07:33;;;;;;;;;3.33;1.00;;;;;14.78;100.00;100474.78;5026630;28;46079;-73
2023/04/23 02:09:59;;;;;;;;;1.00;1.00;;;;;14.76;100.00;100475.72;5015857;28;45503;-73
2023/04/23 02:12:25;;;;;;;;;4.00;1.00;;;;;14.75;100.00;100473.91;5015922;28;45211;-73
2023/04/23 02:14:50;;;;;;;;;2.00;2.00;;;;;14.71;100.00;100475.75;4998180;28;45540;-73
2023/04/23 02:17:16;;;;;;;;;3.00;1.00;;;;;14.70;100.00;100478.41;5015294;28;45902;-73
2023/04/23 02:19:41;;;;;;;;;3.00;1.00;;;;;14.67;100.00;100487.31;5012780;28;66205;-72
2023/04/23 02:22:06;;;;;;;;;1.33;1.33;;;;;14.63;100.00;100488.22;5022980;28;64330;-73
2023/04/23 02:24:32;;;;;;;;;5.00;1.00;;;;;14.59;100.00;100483.84;5019784;28;45159;-73
2023/04/23 02:26:58;;;;;;;;;1.00;1.00;;;;;14.58;100.00;100488.28;5021277;28;45695;-73
2023/04/23 02:29:23;;;;;;;;;1.67;1.33;;;;;14.59;100.00;100475.88;5018220;28;60429;-73
2023/04/23 02:31:49;;;;;;;;;2.00;0.33;;;;;14.58;100.00;100480.31;5018300;28;62899;-73
2023/04/23 02:34:14;;;;;;;;;2.00;1.00;;;;;14.52;100.00;100475.06;5031379;28;47115;-73
2023/04/23 02:36:39;;;;;;;;;1.67;1.00;;;;;14.49;100.00;100479.53;5018618;28;45985;-73
2023/04/23 02:39:05;;;;;;;;;1.33;1.00;;;;;14.47;100.00;100478.63;5018062;28;56715;-73
2023/04/23 02:41:30;;;;;;;;;2.33;1.00;;;;;14.46;100.00;100477.75;5018711;28;45262;-73
2023/04/23 02:43:56;;;;;;;;;2.00;1.00;;;;;14.45;100.00;100483.09;5018217;28;45444;-73
2023/04/23 02:46:22;;;;;;;;;1.00;1.00;;;;;14.45;100.00;100477.78;5018073;28;46211;-73
2023/04/23 02:48:47;;;;;;;;;1.67;1.00;;;;;14.42;100.00;100463.63;5018403;28;45360;-73
2023/04/23 02:51:13;;;;;;;;;3.00;2.00;;;;;14.42;100.00;100466.28;4983475;28;45641;-73
2023/04/23 02:53:38;;;;;;;;;3.67;1.00;;;;;14.38;100.00;100456.59;5025484;28;45433;-73
2023/04/23 02:56:04;;;;;;;;;3.00;1.00;;;;;14.36;100.00;100466.34;5017328;28;68648;-73
2023/04/23 02:58:30;;;;;;;;;2.33;1.33;;;;;14.31;100.00;100467.28;5000073;28;45733;-73
2023/04/23 03:00:55;;;;;;;;;2.00;2.00;;;;;14.29;100.00;100459.34;5018290;28;54976;-73
2023/04/23 03:03:21;;;;;;;;;1.00;1.00;;;;;14.28;100.00;100464.69;5018597;28;50204;-73
2023/04/23 03:05:46;;;;;;;;;6.00;1.00;;;;;14.26;100.00;100459.38;5018764;28;46583;-73
2023/04/23 03:08:12;;;;;;;;;1.33;1.33;;;;;14.22;100.00;100460.31;5013694;28;45631;-73
2023/04/23 03:10:37;;;;;;;;;2.00;1.00;;;;;14.19;100.00;100465.66;4999641;28;59055;-73
2023/04/23 03:13:03;;;;;;;;;2.67;1.00;;;;;14.19;100.00;100456.81;5018447;28;45270;-73
2023/04/23 03:15:29;;;;;;;;;4.67;1.67;;;;;14.15;100.00;100448.84;5017472;28;69909;-73
2023/04/23 03:17:54;;;;;;;;;1.00;1.00;;;;;14.14;100.00;100443.56;5021602;28;45338;-73
2023/04/23 03:20:20;;;;;;;;;2.00;1.00;;;;;14.11;100.00;100449.81;5018373;28;45282;-73
2023/04/23 03:22:45;;;;;;;;;0.67;0.67;;;;;14.07;100.00;100434.78;5017983;28;45282;-73
2023/04/23 03:25:11;;;;;;;;;1.33;1.33;;;;;14.05;100.00;100439.22;5018226;28;45599;-72
2023/04/23 03:27:39;;;;;;;;;3.00;1.00;;;;;14.04;100.00;100432.16;5017361;28;63401;-73
2023/04/23 03:30:07;;;;;;;;;3.67;2.00;;;;;14.04;100.00;100442.78;5017952;28;45475;-73
2023/04/23 03:32:33;;;;;;;;;3.67;1.67;;;;;14.05;100.00;100436.56;5017524;28;45410;-73
2023/04/23 03:34:58;;;;;;;;;3.00;1.00;;;;;14.03;100.00;100435.69;5017688;28;45566;-73
2023/04/23 03:37:23;;;;;;;;;1.67;1.33;;;;;14.05;100.00;100444.53;5016671;28;45444;-73
2023/04/23 03:39:50;;;;;;;;;3.67;2.00;;;;;14.07;100.00;100442.75;5017566;28;56706;-72
2023/04/23 03:42:15;;;;;;;;;4.67;2.67;;;;;14.13;100.00;100442.69;5017527;28;45475;-73
2023/04/23 03:44:40;;;;;;;;;4.67;3.00;;;;;14.21;100.00;100437.28;5021279;28;46113;-72
2023/04/23 03:47:06;;;;;;;;;1.00;1.00;;;;;14.25;100.00;100432.84;5017177;28;57584;-73
2023/04/23 03:49:31;;;;;;;;;1.00;1.00;;;;;14.29;100.00;100439.88;5017998;28;62575;-73
2023/04/23 03:51:56;;;;;;;;;2.00;1.00;;;;;14.35;100.00;100432.72;5017050;28;45522;-73
2023/04/23 03:54:23;;;;;;;;;2.00;2.00;;;;;14.40;100.00;100430.91;5016829;28;64697;-72
2023/04/23 03:56:48;;;;;;;;;2.00;2.00;;;;;14.42;100.00;100420.25;5018082;28;45428;-72
2023/04/23 03:59:14;;;;;;;;;3.00;2.00;;;;;14.47;100.00;100433.47;5016969;28;61114;-72
2023/04/23 04:01:39;;;;;;;;;2.00;2.00;;;;;14.51;100.00;100433.47;5020938;28;45440;-72
2023/04/23 04:04:04;;;;;;;;;2.00;2.00;;;;;14.54;100.00;100436.09;5014902;28;70961;-73
2023/04/23 04:06:30;;;;;;;;;4.00;2.00;;;;;14.57;100.00;100436.03;5021263;28;45388;-73
2023/04/23 04:08:55;;;;;;;;;2.00;2.00;;;;;14.58;100.00;100418.31;5016287;28;45649;-72
2023/04/23 04:11:21;;;;;;;;;3.00;1.00;;;;;14.58;100.00;100419.19;5017612;28;45619;-73
2023/04/23 04:13:46;;;;;;;;;3.00;2.00;;;;;14.57;100.00;100414.78;5016561;28;65800;-72
2023/04/23 04:16:11;;;;;;;;;2.00;2.00;;;;;14.55;100.00;100402.44;5016447;28;60345;-73
2023/04/23 04:18:38;;;;;;;;;1.33;1.00;;;;;14.56;100.00;100409.50;5017171;28;45441;-73
2023/04/23 04:21:03;;;;;;;;;1.67;1.67;;;;;14.52;100.00;100398.03;5017172;28;45225;-72
2023/04/23 04:23:28;;;;;;;;;1.33;1.33;;;;;14.51;100.00;100412.22;5014962;28;46718;-73
2023/04/23 04:25:55;;;;;;;;;3.33;2.00;;;;;14.49;100.00;100408.72;5016332;28;64862;-73
2023/04/23 04:28:20;;;;;;;;;1.00;1.00;;;;;14.47;100.00;100401.59;5017449;28;45389;-73
2023/04/23 04:30:48;;;;;;;;;3.00;3.00;;;;;14.44;100.00;100397.22;5016726;28;45341;-73
2023/04/23 04:33:14;;;;;;;;;2.33;2.00;;;;;14.44;100.00;100401.66;5016659;28;46654;-72
2023/04/23 04:35:40;;;;;;;;;3.00;1.33;;;;;14.40;100.00;100399.03;5016993;28;45468;-73
2023/04/23 04:38:06;;;;;;;;;2.33;2.00;;;;;14.38;100.00;100400.81;5017104;28;45349;-73
2023/04/23 04:40:33;;;;;;;;;2.00;2.00;;;;;14.33;100.00;100385.84;5017559;28;45412;-73
2023/04/23 04:42:59;;;;;;;;;1.67;1.67;;;;;14.32;100.00;100402.66;4998201;28;46836;-73
2023/04/23 04:45:24;;;;;;;;;5.33;2.00;;;;;14.31;100.00;100393.81;5016514;28;45491;-73
2023/04/23 04:47:50;;;;;;;;;1.00;1.00;;;;;14.30;100.00;100391.19;5015605;28;45411;-73
2023/04/23 04:50:16;;;;;;;;;5.33;2.00;;;;;14.27;100.00;100381.44;5015993;28;45317;-73
2023/04/23 04:52:41;;;;;;;;;2.67;2.67;;;;;14.25;100.00;100377.06;4998366;28;46449;-73
2023/04/23 04:55:07;;;;;;;;;2.00;2.00;;;;;14.20;100.00;100368.28;5015379;28;61421;-73
2023/04/23 04:57:32;;;;;;;;;3.00;3.00;;;;;14.21;100.00;100373.56;5017060;28;45452;-73
2023/04/23 05:00:01;;;;;;;;;4.00;3.00;;;;;14.19;100.00;100367.41;5015820;28;57255;-73
2023/04/23 05:02:27;;;;;;;;;3.33;3.00;;;;;14.21;100.00;100370.91;4998888;28;47374;-72
2023/04/23 05:04:52;;;;;;;;;3.00;2.00;;;;;14.19;100.00;100361.22;5015429;28;66116;-72
2023/04/23 05:07:18;;;;;;;;;4.00;2.67;;;;;14.17;100.00;100369.19;5015694;28;55431;-73
2023/04/23 05:09:43;;;;;;;;;3.00;1.33;;;;;14.18;100.00;100368.31;5016225;28;55521;-72
2023/04/23 05:12:09;;;;;;;;;2.00;2.00;;;;;14.19;100.00;100370.06;5014281;28;46356;-73
2023/04/23 05:14:34;;;;;;;;;3.33;1.00;;;;;14.22;100.00;100374.44;5015868;28;45384;-73
2023/04/23 05:16:59;;;;;;;;;3.67;3.00;;;;;14.22;100.00;100364.72;5015291;28;60347;-73
2023/04/23 05:19:25;;;;;;;;;4.00;2.67;;;;;14.24;100.00;100362.03;5016435;28;45356;-73
2023/04/23 05:21:50;;;;;;;;;3.00;2.33;;;;;14.28;100.00;100369.06;5015163;28;46403;-72
2023/04/23 05:24:15;;;;;;;;;1.67;1.67;;;;;14.29;100.00;100370.84;5013656;28;45437;-73
2023/04/23 05:26:41;;;;;;;;;3.00;1.00;;;;;14.29;100.00;100370.84;5016327;28;53745;-73
2023/04/23 05:29:06;;;;;;;;;4.00;2.00;;;;;14.28;100.00;100372.59;5015267;28;45427;-73
2023/04/23 05:31:32;;;;;;;;;5.00;3.00;;;;;14.27;100.00;100370.81;5014575;28;46608;-73
2023/04/23 05:33:57;;;;;;;;;2.67;1.33;;;;;14.26;100.00;100366.41;5013384;28;64099;-73
2023/04/23 05:36:22;;;;;;;;;2.00;2.00;;;;;14.25;100.00;100364.66;5015081;28;56258;-73
2023/04/23 05:38:48;;;;;;;;;5.00;2.00;;;;;14.23;100.00;100358.50;4980914;28;45574;-73
2023/04/23 05:41:14;;;;;;;;;4.67;1.00;;;;;14.24;100.00;100348.75;5015695;28;46833;-73
2023/04/23 05:43:39;;;;;;;;;4.33;1.67;;;;;14.24;100.00;100343.44;5108765;22;45536;-73
2023/04/23 05:46:06;;;;;;;;;2.67;2.33;;;;;14.22;100.00;100346.13;5018127;28;45515;-73
2023/04/23 05:48:31;;;;;;;;;4.00;1.00;;;;;14.25;100.00;100347.84;5035121;28;45715;-72
2023/04/23 05:50:57;;;;;;;;;3.33;2.00;;;;;14.23;100.00;100339.91;5034855;28;45588;-72
2023/04/23 05:53:22;;;;;;;;;2.00;1.33;;;;;14.26;100.00;100345.16;5034509;28;45544;-73
2023/04/23 05:55:48;;;;;;;;;2.00;2.00;;;;;14.26;100.00;100341.63;5034028;28;45746;-73
2023/04/23 05:58:14;;;;;;;;;1.00;1.00;;;;;14.26;100.00;100336.34;5035405;28;45502;-73
2023/04/23 06:00:40;;;;;;;;;2.00;1.00;;;;;14.25;100.00;100342.53;5035637;28;45583;-73
2023/04/23 06:03:06;;;;;;;;;2.00;2.00;;;;;14.20;100.00;100342.59;5017436;28;45371;-73
2023/04/23 06:05:31;;;;;;;;;4.00;2.00;;;;;14.22;100.00;100339.91;5034646;28;45301;-73
2023/04/23 06:07:56;;;;;;;;;1.67;1.00;;;;;14.20;100.00;100341.72;5035701;28;45563;-72
2023/04/23 06:10:22;;;;;;;;;3.00;1.00;;;;;14.18;100.00;100339.09;5035593;28;67711;-72
2023/04/23 06:12:48;;;;;;;;;3.67;2.00;;;;;14.15;100.00;100337.34;5035365;28;45404;-73
2023/04/23 06:15:13;;;;;;;;;3.33;2.00;;;;;14.16;100.00;100346.19;5035692;28;45360;-72
2023/04/23 06:17:38;;;;;;;;;2.00;2.00;;;;;14.13;100.00;100333.84;5033968;28;45412;-73
2023/04/23 06:20:04;;;;;;;;;4.00;2.67;;;;;14.09;100.00;100342.72;5035233;28;45604;-73
2023/04/23 06:22:30;;;;;;;;;5.00;2.00;;;;;14.10;100.00;100349.78;5034626;28;45419;-72
2023/04/23 06:24:56;;;;;;;;;2.00;2.00;;;;;14.09;100.00;100353.34;5035468;28;45289;-73
2023/04/23 06:27:21;;;;;;;;;2.67;2.67;;;;;14.08;100.00;100340.97;5034606;28;62102;-72
2023/04/23 06:29:47;;;;;;;;;2.00;2.00;;;;;14.08;100.00;100345.41;5034441;28;46314;-73
2023/04/23 06:32:12;;;;;;;;;2.00;2.00;;;;;14.06;100.00;100347.16;5016721;28;45492;-72
2023/04/23 06:34:37;;;;;;;;;2.00;2.00;;;;;14.07;100.00;100352.50;5034861;28;62667;-72
2023/04/23 06:37:02;;;;;;;;;2.67;2.00;;;;;14.05;100.00;100348.94;5017034;28;45471;-73
2023/04/23 06:39:28;;;;;;;;;2.33;1.00;;;;;14.04;100.00;100339.22;5034327;28;66499;-73
2023/04/23 06:41:53;;;;;;;;;3.00;3.00;;;;;14.03;100.00;100337.47;5016044;28;56607;-72
2023/04/23 06:44:18;;;;;;;;;5.00;3.00;;;;;14.04;100.00;100338.34;5033815;28;45507;-73
2023/04/23 06:46:44;;;;;;;;;2.00;2.00;;;;;14.04;100.00;100331.28;5016270;28;58429;-73
2023/04/23 06:49:09;;;;;;;;;1.67;1.67;;;;;14.04;100.00;100322.44;5040432;28;66765;-73
2023/04/23 06:51:34;;;;;;;;;3.00;1.33;;;;;14.05;100.00;100330.38;5034890;28;45380;-72
2023/04/23 06:54:00;;;;;;;;;4.67;2.00;;;;;14.06;100.00;100325.94;5034074;28;45455;-73
2023/04/23 06:56:26;;;;;;;;;2.00;2.00;;;;;14.04;100.00;100333.06;5017028;28;56049;-73
2023/04/23 06:58:51;;;;;;;;;2.00;2.00;;;;;14.07;100.00;100330.38;5034002;28;45776;-72
2023/04/23 07:01:18;;;;;;;;;2.00;2.00;;;;;14.07;100.00;100320.63;5017065;28;45361;-73
2023/04/23 07:03:47;;;;;;;;;2.67;2.00;;;;;14.07;100.00;100314.44;5016662;28;45451;-72
2023/04/23 07:06:13;;;;;;;;;2.67;2.00;;;;;14.08;100.00;100311.75;5034538;28;46294;-73
2023/04/23 07:08:39;;;;;;;;;6.33;3.00;;;;;14.08;100.00;100314.41;5002950;28;47584;-72
2023/04/23 07:11:04;;;;;;;;;5.00;3.00;;;;;14.09;100.00;100309.97;5038394;28;45365;-73
2023/04/23 07:13:29;;;;;;;;;4.00;4.00;;;;;14.09;100.00;100307.31;5018087;28;63352;-73
2023/04/23 07:15:55;;;;;;;;;2.67;2.67;;;;;14.09;100.00;100312.63;5042902;28;59459;-73
2023/04/23 07:18:20;;;;;;;;;3.00;3.00;;;;;14.11;100.00;100314.41;5037438;28;46496;-73
2023/04/23 07:20:45;;;;;;;;;7.00;4.00;;;;;14.12;100.00;100302.88;5037774;28;45357;-73
2023/04/23 07:23:11;;;;;;;;;3.00;2.33;;;;;14.16;100.00;100296.59;5036396;28;52283;-73
2023/04/23 07:25:36;;;;;;;;;4.00;4.00;;;;;14.21;100.00;100296.56;5017755;28;58738;-73
2023/04/23 07:28:02;;;;;;;;;3.00;2.00;;;;;14.24;100.00;100300.97;5036546;28;46492;-73
2023/04/23 07:30:28;;;;;;;;;6.00;2.33;;;;;14.25;100.00;100284.13;5020120;28;45511;-72
2023/04/23 07:32:54;;;;;;;;;5.33;4.00;;;;;14.26;100.00;100283.22;5018172;28;59602;-72
2023/04/23 07:35:19;;;;;;;;;3.67;3.67;;;;;14.27;100.00;100284.97;5020291;28;45543;-73
2023/04/23 07:37:45;;;;;;;;;6.00;4.00;;;;;14.32;100.00;100288.44;5036898;28;45971;-73
2023/04/23 07:40:10;;;;;;;;;5.00;4.00;;;;;14.35;100.00;100296.38;5037790;28;45350;-72
2023/04/23 07:42:36;;;;;;;;;4.33;4.00;;;;;14.34;100.00;100282.22;5035260;28;45280;-72
2023/04/23 07:45:01;;;;;;;;;4.00;4.00;;;;;14.35;100.00;100278.66;4997368;28;45536;-71
2023/04/23 07:47:27;;;;;;;;;5.00;4.00;;;;;14.37;100.00;100263.59;5018370;28;47677;-69
2023/04/23 07:49:52;;;;;;;;;5.00;5.00;;;;;14.37;100.00;100268.91;5018306;28;45398;-71
2023/04/23 07:52:17;;;;;;;;;5.00;3.00;;;;;14.37;100.00;100258.28;5036963;28;45567;-70
2023/04/23 07:54:43;;;;;;;;;6.67;5.00;;;;;14.39;100.00;100272.44;5032339;28;58878;-72
2023/04/23 07:57:10;;;;;;;;;8.67;7.00;;;;;14.40;100.00;100273.31;5035939;28;46418;-71
2023/04/23 07:59:37;;;;;;;;;6.00;6.00;;;;;14.41;100.00;100277.72;5018877;28;45320;-71
2023/04/23 08:02:03;;;;;;;;;5.67;5.00;;;;;14.43;100.00;100265.28;5014053;28;45440;-72
2023/04/23 08:04:28;;;;;;;;;6.00;6.00;;;;;14.50;100.00;100266.13;5030116;28;45408;-72
2023/04/23 08:06:53;;;;;;;;;6.67;5.00;;;;;14.52;100.00;100259.88;5030259;28;70804;-72
2023/04/23 08:09:19;;;;;;;;;7.00;5.00;;;;;14.51;100.00;100246.63;5041852;28;45476;-72
2023/04/23 08:11:44;;;;;;;;;5.33;5.00;;;;;14.51;100.00;100241.31;5017781;28;45442;-72
2023/04/23 08:14:10;;;;;;;;;5.00;5.00;;;;;14.54;100.00;100230.63;5035628;28;45463;-72
2023/04/23 08:16:36;;;;;;;;;5.00;5.00;;;;;14.55;100.00;100221.78;5014820;28;46122;-72
2023/04/23 08:19:03;;;;;;;;;6.00;6.00;;;;;14.63;100.00;100223.41;5000164;28;45970;-73
2023/04/23 08:21:30;;;;;;;;;6.00;6.00;;;;;14.69;100.00;100209.13;5037340;28;45424;-72
2023/04/23 08:23:56;;;;;;;;;7.67;5.33;;;;;14.75;100.00;100202.84;5018978;28;45664;-73
2023/04/23 08:26:22;;;;;;;;;6.00;4.67;;;;;14.75;100.00;100182.47;5036162;28;60604;-73
2023/04/23 08:28:47;;;;;;;;;6.33;5.00;;;;;14.80;100.00;100179.72;5035385;28;45398;-73
2023/04/23 08:31:14;;;;;;;;;7.00;4.67;;;;;14.82;100.00;100169.97;5011437;28;46092;-71
2023/04/23 08:33:39;;;;;;;;;6.00;5.33;;;;;14.87;100.00;100160.13;5036017;28;45455;-72
2023/04/23 08:36:05;;;;;;;;;5.00;4.00;;;;;14.95;100.00;100147.56;5028215;28;67137;-72
2023/04/23 08:38:30;;;;;;;;;7.00;6.00;;;;;15.05;100.00;100141.19;5008518;28;45467;-72
2023/04/23 08:40:57;;;;;;;;;5.33;4.00;;;;;15.14;100.00;100140.16;5027912;28;45461;-71
2023/04/23 08:43:33;;;;;;;;;6.33;5.00;;;;;15.24;100.00;100135.53;5027438;28;45415;-71
2023/04/23 08:46:04;;;;;;;;;7.00;5.67;;;;;15.39;100.00;100133.47;5021698;28;45853;-72
2023/04/23 08:48:32;;;;;;;;;5.00;5.00;;;;;15.48;100.00;100115.53;5028171;28;45497;-72
2023/04/23 08:50:58;;;;;;;;;5.67;4.00;;;;;15.57;100.00;100108.25;5006679;28;45456;-72
2023/04/23 08:53:26;;;;;;;;;6.00;6.00;;;;;15.61;100.00;100101.97;5022781;28;52666;-72
2023/04/23 08:55:53;;;;;;;;;6.33;5.00;;;;;15.69;100.00;100096.50;4991789;28;46396;-72
2023/04/23 08:58:19;;;;;;;;;4.00;4.00;;;;;15.69;100.00;100086.72;5014236;28;45510;-73
2023/04/23 09:00:44;;;;;;;;;5.33;5.33;;;;;15.69;100.00;100085.84;5013549;28;45504;-72
2023/04/23 09:03:10;;;;;;;;;6.67;6.67;;;;;15.61;100.00;100091.31;4995312;28;55365;-72
2023/04/23 09:05:36;;;;;;;;;8.33;8.00;;;;;15.59;100.00;100065.63;5026919;28;68559;-74
2023/04/23 09:08:01;;;;;;;;;5.00;4.33;;;;;15.56;100.00;100057.72;5013440;28;68156;-71
2023/04/23 09:10:27;;;;;;;;;7.67;5.67;;;;;15.61;100.00;100062.03;5023483;28;56981;-70
2023/04/23 09:12:53;;;;;;;;;6.00;5.00;;;;;15.64;100.00;100059.31;5019920;28;57738;-70
2023/04/23 09:15:18;;;;;;;;;6.67;6.67;;;;;15.69;100.00;100049.47;5025818;28;47000;-71
2023/04/23 09:17:45;;;;;;;;;12.33;7.33;;;;;15.78;100.00;100050.19;5023125;28;45471;-71
2023/04/23 09:20:12;;;;;;;;;7.33;7.33;;;;;15.83;100.00;100038.50;5019770;28;45539;-72
2023/04/23 09:22:40;;;;;;;;;7.67;7.67;;;;;15.88;100.00;100041.06;5032440;28;45447;-72
2023/04/23 09:25:10;;;;;;;;;9.67;8.00;;;;;15.90;100.00;100032.13;5028245;28;46672;-72
2023/04/23 09:27:38;;;;;;;;;7.00;7.00;;;;;15.98;100.00;100022.19;5016776;28;45404;-72
2023/04/23 09:30:09;;;;;;;;;5.33;5.33;;;;;16.09;100.00;100019.25;5032512;28;45594;-72
2023/04/23 09:32:36;;;;;;;;;5.00;3.33;;;;;16.19;100.00;100003.88;4999536;28;45577;-72
2023/04/23 09:35:03;;;;;;;;;7.33;5.33;;;;;16.24;100.00;99997.56;5000964;28;48412;-72
2023/04/23 09:37:29;;;;;;;;;10.00;7.33;;;;;16.33;100.00;99983.09;5034326;28;45598;-72
2023/04/23 09:39:57;;;;;;;;;9.00;8.00;;;;;16.49;100.00;99991.56;5010753;28;46282;-71
2023/04/23 09:42:23;;;;;;;;;9.00;8.67;;;;;16.64;100.00;99985.84;5012023;28;46189;-71
2023/04/23 09:45:03;;;;;;;;;7.67;5.00;;;;;16.72;100.00;99988.31;5029212;28;46390;-71
2023/04/23 09:47:38;;;;;;;;;7.33;7.33;;;;;16.76;100.00;99973.97;5008078;28;45435;-73
2023/04/23 09:50:04;;;;;;;;;8.67;8.67;;;;;16.77;100.00;99979.25;5008718;28;45496;-75
2023/04/23 09:52:33;;;;;;;;;6.67;6.67;;;;;16.77;100.00;99976.59;5036146;28;45509;-71
2023/04/23 09:55:02;;;;;;;;;6.00;6.00;;;;;16.80;100.00;99972.13;5017087;28;45696;-72
2023/04/23 09:57:28;;;;;;;;;7.00;5.67;;;;;16.81;100.00;99977.41;5017866;28;46090;-72
2023/04/23 09:59:56;;;;;;;;;7.00;6.00;;;;;16.78;100.00;99982.84;5017073;28;64927;-74
2023/04/23 10:02:27;;;;;;;;;8.00;5.33;;;;;16.76;100.00;99961.53;5024196;28;45420;-73
2023/04/23 10:04:53;;;;;;;;;8.00;7.00;;;;;16.69;100.00;99969.72;5017890;28;45966;-72
2023/04/23 10:07:19;;;;;;;;;5.00;5.00;;;;;16.55;100.00;99961.22;5017941;28;45456;-73
2023/04/23 10:09:44;;;;;;;;;4.00;4.00;;;;;16.42;100.00;99953.56;5034071;28;45310;-73
2023/04/23 10:12:10;;;;;;;;;6.00;6.00;;;;;16.41;100.00;99946.50;5034899;28;45450;-73
2023/04/23 10:14:35;;;;;;;;;5.00;4.00;;;;;16.32;100.00;99948.53;4999377;28;47691;-72
2023/04/23 10:17:02;;;;;;;;;5.00;5.00;;;;;16.23;100.00;99934.53;5016734;28;45987;-73
2023/04/23 10:19:28;;;;;;;;;5.33;4.00;;;;;16.22;100.00;99940.78;5032957;28;45506;-73
2023/04/23 10:22:14;;;;;;;;;5.67;4.00;;;;;16.30;100.00;99927.25;5034358;28;45563;-73
2023/04/23 10:24:40;;;;;;;;;6.33;5.33;;;;;16.39;100.00;99918.13;5031722;28;47079;-72
2023/04/23 10:27:10;;;;;;;;;3.67;2.67;;;;;16.53;100.00;99921.28;5034311;28;45371;-73
2023/04/23 10:29:35;;;;;;;;;5.33;5.33;;;;;16.65;100.00;99914.75;5014691;28;45452;-72
2023/04/23 10:32:02;;;;;;;;;7.33;5.00;;;;;16.73;100.00;99902.13;5035066;28;45575;-75
2023/04/23 10:34:29;;;;;;;;;3.00;3.00;;;;;16.75;100.00;99905.59;5016704;28;45937;-74
2023/04/23 10:36:56;;;;;;;;;6.33;4.33;;;;;16.80;100.00;99900.13;5034451;28;45340;-74
2023/04/23 10:39:25;;;;;;;;;4.00;3.00;;;;;16.81;100.00;99902.75;5017582;28;45474;-73
2023/04/23 10:41:52;;;;;;;;;4.00;4.00;;;;;16.77;100.00;99885.94;5035237;28;45560;-73
2023/04/23 10:44:20;;;;;;;;;4.67;4.67;;;;;16.70;100.00;99876.38;5023949;28;46635;-74
2023/04/23 10:46:55;;;;;;;;;5.00;5.00;;;;;16.67;100.00;99873.81;5018634;28;45480;-75
2023/04/23 10:49:22;;;;;;;;;5.00;5.00;;;;;16.62;100.00;99873.06;4989698;28;45531;-74
2023/04/23 10:51:47;;;;;;;;;5.00;5.00;;;;;16.53;100.00;99854.69;5025569;28;45576;-75
2023/04/23 10:54:14;;;;;;;;;4.33;4.33;;;;;16.44;100.00;99844.28;5000966;28;46565;-72
2023/04/23 10:56:40;;;;;;;;;4.00;4.00;;;;;16.39;100.00;99844.41;5009895;28;45536;-73
2023/04/23 10:59:19;;;;;;;;;3.67;3.67;;;;;16.32;100.00;99847.28;5003170;28;45533;-72
2023/04/23 11:01:58;;;;;;;;;5.00;4.00;;;;;16.22;100.00;99831.56;4991621;28;45368;-70
2023/04/23 11:04:28;;;;;;;;;4.00;4.00;;;;;16.14;100.00;99825.59;5026437;28;46801;-70
2023/04/23 11:07:04;;;;;;;;;3.00;3.00;;;;;16.10;100.00;99812.41;5018734;28;45596;-72
2023/04/23 11:09:44;;;;;;;;;3.33;3.33;;;;;16.02;100.00;99803.75;5023604;28;46871;-73
2023/04/23 11:12:19;;;;;;;;;3.67;3.67;;;;;15.95;100.00;99809.25;5025244;28;45524;-71
2023/04/23 11:14:44;;;;;;;;;6.00;4.67;;;;;15.90;100.00;99804.94;5013730;28;46434;-71